createdAt,value
2023-04-29T00:04:51.369Z,993.46
2023-04-29T00:09:51.290Z,993.45
2023-04-29T00:14:51.066Z,993.45
2023-04-29T00:19:51.409Z,993.44
2023-04-29T00:24:50.946Z,993.33
2023-04-29T00:29:51.021Z,993.21
2023-04-29T00:34:50.807Z,993.19
2023-04-29T00:39:50.985Z,993.21
2023-04-29T00:44:50.678Z,993.23
2023-04-29T00:49:50.919Z,993.32
2023-04-29T00:54:50.548Z,993.30
2023-04-29T00:59:50.915Z,993.31
2023-04-29T01:04:50.470Z,993.31
2023-04-29T01:09:50.711Z,993.37
2023-04-29T01:14:50.277Z,993.42
2023-04-29T01:19:50.504Z,993.46
2023-04-29T01:24:50.195Z,993.53
2023-04-29T01:29:50.304Z,993.52
2023-04-29T01:34:50.048Z,993.45
2023-04-29T01:39:50.171Z,993.38
2023-04-29T01:44:49.892Z,993.47
2023-04-29T01:49:49.937Z,993.37
2023-04-29T01:54:49.756Z,993.58
2023-04-29T01:59:49.888Z,993.58
2023-04-29T02:04:49.739Z,993.66
2023-04-29T02:09:49.564Z,993.70
2023-04-29T02:14:49.499Z,993.71
2023-04-29T02:19:49.501Z,993.76
2023-04-29T02:24:49.369Z,993.74
2023-04-29T02:29:49.333Z,993.76
2023-04-29T02:34:49.253Z,993.83
2023-04-29T02:39:49.189Z,993.84
2023-04-29T02:44:49.104Z,993.88
2023-04-29T02:49:49.064Z,993.90
2023-04-29T02:54:48.976Z,993.84
2023-04-29T02:59:48.919Z,993.78
2023-04-29T03:04:48.879Z,993.81
2023-04-29T03:09:48.790Z,993.75
2023-04-29T03:14:48.727Z,993.78
2023-04-29T03:19:48.649Z,993.74
2023-04-29T03:24:48.583Z,993.75
2023-04-29T03:29:48.511Z,993.71
2023-04-29T03:34:48.450Z,993.72
2023-04-29T03:39:48.380Z,993.75
2023-04-29T03:44:48.316Z,993.69
2023-04-29T03:49:48.255Z,993.67
2023-04-29T03:54:48.176Z,993.73
2023-04-29T03:59:48.114Z,993.73
2023-04-29T04:04:48.283Z,993.75
2023-04-29T04:09:47.981Z,993.79
2023-04-29T04:14:47.907Z,993.82
2023-04-29T04:19:47.881Z,993.84
2023-04-29T04:24:47.801Z,993.85
2023-04-29T04:29:47.722Z,993.99
2023-04-29T04:34:47.699Z,994.04
2023-04-29T04:39:47.646Z,994.04
2023-04-29T04:44:47.671Z,994.11
2023-04-29T04:49:47.764Z,994.10
2023-04-29T04:54:47.689Z,994.18
2023-04-29T04:59:47.736Z,994.19
2023-04-29T05:04:47.822Z,994.20
2023-04-29T05:09:47.751Z,994.25
2023-04-29T05:14:47.144Z,994.27
2023-04-29T05:19:47.075Z,994.32
2023-04-29T05:24:47.009Z,994.29
2023-04-29T05:29:46.941Z,994.33
2023-04-29T05:34:46.878Z,994.37
2023-04-29T05:39:46.810Z,994.43
2023-04-29T05:44:46.734Z,994.52
2023-04-29T05:49:46.674Z,994.60
2023-04-29T05:54:46.602Z,994.57
2023-04-29T05:59:46.544Z,994.67
2023-04-29T06:04:46.774Z,994.70
2023-04-29T06:09:46.416Z,994.78
2023-04-29T06:14:46.335Z,994.85
2023-04-29T06:19:46.279Z,994.89
2023-04-29T06:24:46.215Z,994.93
2023-04-29T06:29:46.163Z,995.00
2023-04-29T06:34:46.085Z,995.06
2023-04-29T06:39:46.015Z,995.09
2023-04-29T06:44:45.962Z,995.15
2023-04-29T06:49:45.888Z,995.18
2023-04-29T06:54:45.820Z,995.19
2023-04-29T06:59:45.753Z,995.24
2023-04-29T07:04:45.716Z,995.30
2023-04-29T07:09:45.636Z,995.34
2023-04-29T07:14:45.552Z,995.37
2023-04-29T07:19:45.505Z,995.48
2023-04-29T07:24:45.427Z,995.48
2023-04-29T07:29:45.379Z,995.56
2023-04-29T07:34:45.297Z,995.60
2023-04-29T07:39:45.256Z,995.62
2023-04-29T07:44:45.169Z,995.70
2023-04-29T07:49:45.109Z,995.76
2023-04-29T07:54:45.046Z,995.89
2023-04-29T07:59:44.984Z,995.89
2023-04-29T08:04:45.081Z,995.99
2023-04-29T08:09:44.847Z,996.08
2023-04-29T08:14:44.773Z,996.19
2023-04-29T08:19:44.720Z,996.23
2023-04-29T08:24:44.635Z,996.29
2023-04-29T08:29:44.595Z,996.44
2023-04-29T08:34:44.505Z,996.48
2023-04-29T08:39:44.456Z,996.57
2023-04-29T08:44:44.374Z,996.63
2023-04-29T08:49:44.318Z,996.62
2023-04-29T08:54:44.231Z,996.65
2023-04-29T08:59:44.234Z,996.73
2023-04-29T09:04:44.147Z,996.79
2023-04-29T09:09:44.046Z,996.84
2023-04-29T09:14:43.964Z,996.97
2023-04-29T09:19:43.907Z,997.00
2023-04-29T09:24:43.848Z,997.11
2023-04-29T09:29:43.772Z,997.18
2023-04-29T09:34:43.694Z,997.23
2023-04-29T09:39:43.645Z,997.37
2023-04-29T09:44:43.573Z,997.47
2023-04-29T09:49:43.492Z,997.54
2023-04-29T09:54:43.468Z,997.61
2023-04-29T09:59:43.364Z,997.66
2023-04-29T10:04:43.326Z,997.68
2023-04-29T10:09:43.228Z,997.82
2023-04-29T10:14:43.164Z,997.92
2023-04-29T10:19:43.089Z,997.98
2023-04-29T10:24:43.028Z,998.05
2023-04-29T10:29:42.959Z,998.06
2023-04-29T10:34:42.900Z,998.13
2023-04-29T10:39:42.826Z,998.13
2023-04-29T10:44:42.755Z,998.12
2023-04-29T10:49:42.688Z,998.18
2023-04-29T10:54:44.129Z,998.20
2023-04-29T10:59:42.551Z,998.16
2023-04-29T11:04:42.538Z,998.25
2023-04-29T11:09:42.417Z,998.32
2023-04-29T11:14:42.373Z,998.38
2023-04-29T11:19:42.289Z,998.44
2023-04-29T11:24:42.236Z,998.39
2023-04-29T11:29:42.155Z,998.45
2023-04-29T11:34:42.098Z,998.45
2023-04-29T11:39:42.033Z,998.42
2023-04-29T11:44:41.960Z,998.58
2023-04-29T11:49:41.901Z,998.65
2023-04-29T11:54:41.834Z,998.68
2023-04-29T11:59:41.768Z,998.79
2023-04-29T12:04:41.918Z,998.92
2023-04-29T12:09:41.637Z,998.90
2023-04-29T12:14:41.576Z,998.92
2023-04-29T12:19:41.514Z,999.05
2023-04-29T12:24:41.444Z,999.05
2023-04-29T12:29:41.360Z,999.12
2023-04-29T12:34:41.312Z,999.12
2023-04-29T12:39:41.232Z,999.21
2023-04-29T12:44:41.245Z,999.24
2023-04-29T12:49:41.106Z,999.29
2023-04-29T12:54:41.066Z,999.33
2023-04-29T12:59:41.525Z,999.26
2023-04-29T13:04:42.827Z,999.25
2023-04-29T13:09:40.830Z,999.26
2023-04-29T13:14:40.786Z,999.26
2023-04-29T13:19:51.342Z,999.29
2023-04-29T13:24:41.662Z,999.29
2023-04-29T13:29:40.567Z,999.36
2023-04-29T13:34:41.020Z,999.37
2023-04-29T13:39:40.444Z,999.34
2023-04-29T13:59:46.532Z,999.46
2023-04-29T14:04:41.311Z,999.47
2023-04-29T14:09:40.054Z,999.52
2023-04-29T14:14:39.997Z,999.58
2023-04-29T14:19:39.920Z,999.63
2023-04-29T14:24:39.862Z,999.64
2023-04-29T14:29:39.790Z,999.71
2023-04-29T14:34:39.736Z,999.71
2023-04-29T14:39:39.658Z,999.81
2023-04-29T14:44:39.601Z,999.83
2023-04-29T14:49:39.533Z,999.88
2023-04-29T14:54:39.474Z,999.91
2023-04-29T14:59:39.390Z,999.89
2023-04-29T15:04:39.415Z,999.99
2023-04-29T15:09:39.260Z,999.99
2023-04-29T15:14:39.206Z,1000.07
2023-04-29T15:19:39.137Z,1000.08
2023-04-29T15:24:39.074Z,1000.06
2023-04-29T15:29:38.998Z,1000.12
2023-04-29T15:34:38.939Z,1000.15
2023-04-29T15:39:38.871Z,1000.20
2023-04-29T15:44:38.817Z,1000.21
2023-04-29T15:49:38.729Z,1000.28
2023-04-29T15:54:38.689Z,1000.26
2023-04-29T15:59:38.606Z,1000.34
2023-04-29T16:04:38.574Z,1000.32
2023-04-29T16:09:38.465Z,1000.40
2023-04-29T16:14:38.426Z,1000.43
2023-04-29T16:19:38.325Z,1000.49
2023-04-29T16:24:38.285Z,1000.54
2023-04-29T16:29:38.195Z,1000.56
2023-04-29T16:34:38.133Z,1000.64
2023-04-29T16:39:38.076Z,1000.64
2023-04-29T16:44:38.018Z,1000.67
2023-04-29T16:49:37.920Z,1000.77
2023-04-29T16:54:37.868Z,1000.80
2023-04-29T16:59:37.789Z,1000.81
2023-04-29T17:04:37.761Z,1000.84
2023-04-29T17:09:37.651Z,1000.94
2023-04-29T17:14:39.723Z,1000.95
2023-04-29T17:19:37.514Z,1001.02
2023-04-29T17:24:37.469Z,1001.04
2023-04-29T17:29:37.379Z,1001.03
2023-04-29T17:34:37.342Z,1001.10
2023-04-29T17:39:37.244Z,1001.12
2023-04-29T17:44:37.195Z,1001.12
2023-04-29T17:49:37.123Z,1001.25
2023-04-29T17:54:37.069Z,1001.28
2023-04-29T17:59:36.986Z,1001.26
2023-04-29T18:04:36.922Z,1001.28
2023-04-29T18:09:36.860Z,1001.32
2023-04-29T18:14:36.787Z,1001.36
2023-04-29T18:19:36.719Z,1001.46
2023-04-29T18:24:36.656Z,1001.53
2023-04-29T18:29:36.588Z,1001.56
2023-04-29T18:34:36.530Z,1001.60
2023-04-29T18:39:36.453Z,1001.69
2023-04-29T18:44:36.396Z,1001.74
2023-04-29T18:49:38.149Z,1001.77
2023-04-29T18:54:36.264Z,1001.78
2023-04-29T18:59:36.191Z,1001.87
2023-04-29T19:04:36.206Z,1001.90
2023-04-29T19:09:36.073Z,1002.00
2023-04-29T19:14:36.011Z,1002.12
2023-04-29T19:19:35.946Z,1002.16
2023-04-29T19:24:35.875Z,1002.18
2023-04-29T19:29:35.814Z,1002.19
2023-04-29T19:34:35.749Z,1002.26
2023-04-29T19:39:35.683Z,1002.28
2023-04-29T19:44:35.620Z,1002.30
2023-04-29T19:49:35.547Z,1002.29
2023-04-29T19:54:35.504Z,1002.34
2023-04-29T19:59:35.420Z,1002.38
2023-04-29T20:04:35.359Z,1002.37
2023-04-29T20:09:35.283Z,1002.43
2023-04-29T20:14:35.244Z,1002.47
2023-04-29T20:19:35.159Z,1002.51
2023-04-29T20:24:35.108Z,1002.52
2023-04-29T20:29:35.037Z,1002.54
2023-04-29T20:34:34.962Z,1002.53
2023-04-29T20:39:34.902Z,1002.54
2023-04-29T20:44:34.833Z,1002.57
2023-04-29T20:49:34.766Z,1002.67
2023-04-29T20:54:34.718Z,1002.68
2023-04-29T20:59:34.639Z,1002.64
2023-04-29T21:04:34.581Z,1002.63
2023-04-29T21:09:34.497Z,1002.67
2023-04-29T21:14:34.437Z,1002.74
2023-04-29T21:19:34.372Z,1002.81
2023-04-29T21:24:34.307Z,1002.78
2023-04-29T21:29:34.228Z,1002.90
2023-04-29T21:34:34.168Z,1002.90
2023-04-29T21:39:34.100Z,1002.90
2023-04-29T21:44:34.039Z,1002.95
2023-04-29T21:49:33.973Z,1003.02
2023-04-29T21:54:33.904Z,1003.00
2023-04-29T21:59:33.840Z,1002.96
2023-04-29T22:04:33.771Z,1003.08
2023-04-29T22:09:33.711Z,1003.06
2023-04-29T22:14:33.640Z,1003.08
2023-04-29T22:19:33.581Z,1003.12
2023-04-29T22:24:33.807Z,1003.15
2023-04-29T22:29:33.440Z,1003.18
2023-04-29T22:34:33.382Z,1003.18
2023-04-29T22:39:33.312Z,1003.21
2023-04-29T22:44:33.248Z,1003.32
2023-04-29T22:49:33.174Z,1003.26
2023-04-29T22:54:33.124Z,1003.35
2023-04-29T22:59:33.046Z,1003.35
2023-04-29T23:04:33.014Z,1003.37
2023-04-29T23:09:32.924Z,1003.47
2023-04-29T23:14:32.855Z,1003.54
2023-04-29T23:19:32.782Z,1003.60
2023-04-29T23:24:32.723Z,1003.60
2023-04-29T23:29:32.649Z,1003.65
2023-04-29T23:34:32.593Z,1003.70
2023-04-29T23:39:32.516Z,1003.79
2023-04-29T23:44:32.468Z,1003.83
2023-04-29T23:49:32.387Z,1003.82
2023-04-29T23:54:32.336Z,1003.79
2023-04-29T23:59:32.252Z,1003.86
